createdAt,value
2024-02-02T00:00:09.694Z,99344.88
2024-02-02T00:02:57.315Z,99351.14
2024-02-02T00:05:24.897Z,99358.38
2024-02-02T00:07:52.435Z,99354.89
2024-02-02T00:10:20.001Z,99361.60
2024-02-02T00:12:47.478Z,99359.98
2024-02-02T00:15:15.062Z,99358.95
2024-02-02T00:17:42.846Z,99355.98
2024-02-02T00:20:10.451Z,99356.49
2024-02-02T00:22:38.069Z,99355.48
2024-02-02T00:25:05.656Z,99358.39
2024-02-02T00:27:33.196Z,99357.95
2024-02-02T00:30:00.798Z,99365.95
2024-02-02T00:32:28.504Z,99363.56
2024-02-02T00:34:56.143Z,99361.34
2024-02-02T00:37:23.693Z,99359.63
2024-02-02T00:39:51.207Z,99361.86
2024-02-02T00:42:18.814Z,99358.60
2024-02-02T00:44:46.876Z,99360.54
2024-02-02T00:47:14.437Z,99366.50
2024-02-02T00:49:41.980Z,99363.61
2024-02-02T00:52:09.689Z,99366.72
2024-02-02T00:54:37.383Z,99371.06
2024-02-02T00:57:05.207Z,99378.55
2024-02-02T00:59:32.773Z,99377.71
2024-02-02T01:02:00.464Z,99378.41
2024-02-02T01:04:28.109Z,99373.04
2024-02-02T01:06:55.892Z,99369.28
2024-02-02T01:09:23.583Z,99368.84
2024-02-02T01:11:51.139Z,99368.42
2024-02-02T01:14:18.647Z,99368.98
2024-02-02T01:16:46.283Z,99368.40
2024-02-02T01:19:13.881Z,99362.27
2024-02-02T01:21:41.484Z,99359.89
2024-02-02T01:24:09.051Z,99356.42
2024-02-02T01:26:36.576Z,99350.98
2024-02-02T01:29:04.074Z,99357.17
2024-02-02T01:31:31.674Z,99360.56
2024-02-02T01:33:59.311Z,99364.30
2024-02-02T01:36:26.980Z,99368.24
2024-02-02T01:38:54.749Z,99370.30
2024-02-02T01:41:22.272Z,99362.44
2024-02-02T01:43:49.814Z,99359.86
2024-02-02T01:46:17.338Z,99365.30
2024-02-02T01:48:45.098Z,99371.71
2024-02-02T01:51:12.813Z,99369.50
2024-02-02T01:53:40.309Z,99366.11
2024-02-02T01:56:07.905Z,99375.17
2024-02-02T01:58:35.401Z,99374.85
2024-02-02T02:01:02.948Z,99373.64
2024-02-02T02:03:30.945Z,99369.70
2024-02-02T02:05:58.788Z,99377.58
2024-02-02T02:08:26.364Z,99374.84
2024-02-02T02:10:53.854Z,99383.15
2024-02-02T02:13:21.433Z,99383.15
2024-02-02T02:15:48.943Z,99386.65
2024-02-02T02:18:16.598Z,99386.19
2024-02-02T02:20:44.360Z,99384.32
2024-02-02T02:23:12.207Z,99385.36
2024-02-02T02:25:39.742Z,99387.23
2024-02-02T02:28:07.279Z,99385.30
2024-02-02T02:30:34.950Z,99388.15
2024-02-02T02:33:02.751Z,99390.20
2024-02-02T02:35:31.181Z,99391.20
2024-02-02T02:37:58.868Z,99396.77
2024-02-02T02:40:26.429Z,99394.67
2024-02-02T02:42:53.945Z,99398.97
2024-02-02T02:45:21.581Z,99404.48
2024-02-02T02:47:49.447Z,99404.21
2024-02-02T02:50:17.103Z,99401.94
2024-02-02T02:52:44.602Z,99405.25
2024-02-02T02:55:12.478Z,99407.54
2024-02-02T02:57:40.137Z,99403.83
2024-02-02T03:00:07.776Z,99409.70
2024-02-02T03:02:35.333Z,99407.64
2024-02-02T03:05:02.834Z,99410.15
2024-02-02T03:07:30.502Z,99414.73
2024-02-02T03:09:58.382Z,99413.04
2024-02-02T03:12:28.421Z,99413.78
2024-02-02T03:14:56.155Z,99409.08
2024-02-02T03:17:23.812Z,99408.98
2024-02-02T03:19:51.332Z,99409.44
2024-02-02T03:22:18.864Z,99412.07
2024-02-02T03:24:46.412Z,99415.39
2024-02-02T03:27:13.914Z,99418.73
2024-02-02T03:29:41.389Z,99424.38
2024-02-02T03:32:08.926Z,99424.50
2024-02-02T03:34:36.481Z,99420.38
2024-02-02T03:37:04.064Z,99419.89
2024-02-02T03:39:31.802Z,99420.41
2024-02-02T03:41:59.444Z,99421.69
2024-02-02T03:44:27.070Z,99426.79
2024-02-02T03:46:54.580Z,99426.48
2024-02-02T03:49:22.274Z,99428.77
2024-02-02T03:51:50.063Z,99434.00
2024-02-02T03:54:17.640Z,99435.06
2024-02-02T03:56:45.191Z,99429.30
2024-02-02T03:59:12.770Z,99435.91
2024-02-02T04:01:40.323Z,99438.48
2024-02-02T04:04:07.886Z,99439.55
2024-02-02T04:06:35.844Z,99440.30
2024-02-02T04:09:03.380Z,99434.96
2024-02-02T04:11:30.979Z,99440.66
2024-02-02T04:13:58.635Z,99438.66
2024-02-02T04:16:26.139Z,99443.02
2024-02-02T04:18:53.760Z,99440.59
2024-02-02T04:21:21.540Z,99443.23
2024-02-02T04:23:49.129Z,99442.73
2024-02-02T04:26:16.658Z,99443.66
2024-02-02T04:28:44.180Z,99442.53
2024-02-02T04:31:11.673Z,99442.33
2024-02-02T04:33:39.267Z,99443.05
2024-02-02T04:36:06.896Z,99444.88
2024-02-02T04:38:34.407Z,99442.19
2024-02-02T04:41:01.956Z,99441.32
2024-02-02T04:43:29.508Z,99450.43
2024-02-02T04:45:58.017Z,99451.55
2024-02-02T04:48:26.069Z,99454.81
2024-02-02T04:50:53.785Z,99452.80
2024-02-02T04:53:21.352Z,99454.28
2024-02-02T04:55:48.958Z,99454.84
2024-02-02T04:58:16.462Z,99453.36
2024-02-02T05:00:44.129Z,99460.17
2024-02-02T05:03:11.745Z,99453.20
2024-02-02T05:05:39.503Z,99454.47
2024-02-02T05:08:07.197Z,99459.16
2024-02-02T05:10:34.758Z,99463.91
2024-02-02T05:13:02.275Z,99462.63
2024-02-02T05:15:29.880Z,99474.03
2024-02-02T05:17:57.555Z,99476.70
2024-02-02T05:20:25.362Z,99481.79
2024-02-02T05:22:53.049Z,99486.87
2024-02-02T05:25:20.604Z,99484.02
2024-02-02T05:27:48.179Z,99483.73
2024-02-02T05:30:15.780Z,99481.61
2024-02-02T05:32:43.490Z,99486.75
2024-02-02T05:35:11.234Z,99489.79
2024-02-02T05:37:38.766Z,99488.56
2024-02-02T05:40:06.299Z,99490.93
2024-02-02T05:42:33.891Z,99494.58
2024-02-02T05:45:01.417Z,99490.49
2024-02-02T05:47:29.015Z,99499.71
2024-02-02T05:49:56.668Z,99522.96
2024-02-02T05:52:24.286Z,99512.50
2024-02-02T05:54:51.789Z,99508.84
2024-02-02T05:57:19.355Z,99506.77
2024-02-02T05:59:46.867Z,99507.41
2024-02-02T06:02:14.448Z,99498.33
2024-02-02T06:04:42.011Z,99492.77
2024-02-02T06:07:09.690Z,99498.82
2024-02-02T06:09:37.632Z,99500.12
2024-02-02T06:12:05.149Z,99500.85
2024-02-02T06:14:32.639Z,99507.09
2024-02-02T06:17:00.198Z,99506.26
2024-02-02T06:19:27.833Z,99506.75
2024-02-02T06:21:55.373Z,99512.41
2024-02-02T06:24:22.982Z,99511.55
2024-02-02T06:26:50.539Z,99519.02
2024-02-02T06:29:18.141Z,99523.16
2024-02-02T06:31:45.660Z,99521.96
2024-02-02T06:34:13.641Z,99526.23
2024-02-02T06:36:41.293Z,99529.83
2024-02-02T06:39:08.916Z,99534.16
2024-02-02T06:41:36.732Z,99534.79
2024-02-02T06:44:04.302Z,99538.49
2024-02-02T06:46:31.821Z,99539.39
2024-02-02T06:48:59.375Z,99539.48
2024-02-02T06:51:26.952Z,99542.20
2024-02-02T06:53:54.579Z,99543.71
2024-02-02T06:56:22.117Z,99541.39
2024-02-02T06:58:49.608Z,99533.35
2024-02-02T07:01:17.302Z,99529.61
2024-02-02T07:03:44.954Z,99533.80
2024-02-02T07:06:12.648Z,99531.96
2024-02-02T07:08:40.250Z,99530.84
2024-02-02T07:11:07.788Z,99529.32
2024-02-02T07:13:35.388Z,99529.23
2024-02-02T07:16:02.905Z,99538.64
2024-02-02T07:18:31.221Z,99542.38
2024-02-02T07:20:58.798Z,99540.52
2024-02-02T07:23:26.464Z,99541.14
2024-02-02T07:25:53.940Z,99536.63
2024-02-02T07:28:21.434Z,99548.09
2024-02-02T07:30:49.064Z,99556.02
2024-02-02T07:33:16.792Z,99552.19
2024-02-02T07:35:44.543Z,99549.40
2024-02-02T07:38:12.077Z,99549.32
2024-02-02T07:40:39.544Z,99542.59
2024-02-02T07:43:07.092Z,99543.38
2024-02-02T07:45:34.701Z,99549.05
2024-02-02T07:48:02.390Z,99551.34
2024-02-02T07:50:29.931Z,99549.32
2024-02-02T07:52:57.521Z,99547.89
2024-02-02T07:55:25.025Z,99555.77
2024-02-02T07:57:52.648Z,99553.90
2024-02-02T08:00:20.232Z,99556.05
2024-02-02T08:02:47.954Z,99557.56
2024-02-02T08:05:15.495Z,99557.98
2024-02-02T08:07:42.972Z,99556.91
2024-02-02T08:10:10.650Z,99552.52
2024-02-02T08:12:38.335Z,99556.34
2024-02-02T08:15:06.010Z,99557.42
2024-02-02T08:17:33.581Z,99558.54
2024-02-02T08:20:01.201Z,99562.36
2024-02-02T08:22:28.979Z,99560.84
2024-02-02T08:24:56.551Z,99567.02
2024-02-02T08:27:24.189Z,99568.91
2024-02-02T08:29:51.673Z,99568.61
2024-02-02T08:32:19.203Z,99568.83
2024-02-02T08:34:46.758Z,99572.52
2024-02-02T08:37:14.265Z,99575.97
2024-02-02T08:39:41.883Z,99575.55
2024-02-02T08:42:09.455Z,99578.42
2024-02-02T08:44:37.095Z,99578.83
2024-02-02T08:47:04.683Z,99577.45
2024-02-02T08:49:33.227Z,99581.11
2024-02-02T08:52:00.823Z,99583.84
2024-02-02T08:54:28.482Z,99587.28
2024-02-02T08:56:56.225Z,99587.44
2024-02-02T08:59:23.774Z,99586.77
2024-02-02T09:01:51.275Z,99584.16
2024-02-02T09:04:19.941Z,99576.52
2024-02-02T09:06:47.809Z,99575.84
2024-02-02T09:09:15.538Z,99578.94
2024-02-02T09:11:43.141Z,99584.86
2024-02-02T09:14:10.631Z,99581.43
2024-02-02T09:16:38.222Z,99576.66
2024-02-02T09:19:05.876Z,99578.61
2024-02-02T09:21:33.578Z,99576.98
2024-02-02T09:24:01.250Z,99579.52
2024-02-02T09:26:28.894Z,99577.05
2024-02-02T09:28:56.510Z,99575.83
2024-02-02T09:31:24.266Z,99575.66
2024-02-02T09:33:52.064Z,99572.59
2024-02-02T09:36:19.812Z,99575.59
2024-02-02T09:38:47.424Z,99572.25
2024-02-02T09:41:14.986Z,99571.05
2024-02-02T09:43:42.486Z,99568.40
2024-02-02T09:46:10.022Z,99568.58
2024-02-02T09:48:37.687Z,99571.64
2024-02-02T09:51:05.644Z,99575.64
2024-02-02T09:53:33.192Z,99579.89
2024-02-02T09:56:00.912Z,99583.41
2024-02-02T09:58:28.436Z,99573.55
2024-02-02T10:00:56.057Z,99577.23
2024-02-02T10:03:23.921Z,99582.57
2024-02-02T10:05:51.627Z,99580.86
2024-02-02T10:08:19.170Z,99581.92
2024-02-02T10:10:46.759Z,99577.83
2024-02-02T10:13:14.332Z,99579.55
2024-02-02T10:15:41.877Z,99578.41
2024-02-02T10:18:09.550Z,99577.56
2024-02-02T10:20:37.174Z,99570.37
2024-02-02T10:23:04.713Z,99570.60
2024-02-02T10:25:32.271Z,99561.95
2024-02-02T10:27:59.744Z,99563.33
2024-02-02T10:30:27.350Z,99560.05
2024-02-02T10:32:55.086Z,99555.44
2024-02-02T10:35:22.717Z,99559.48
2024-02-02T10:37:50.244Z,99554.09
2024-02-02T10:40:17.829Z,99547.29
2024-02-02T10:42:45.351Z,99549.02
2024-02-02T10:45:13.039Z,99543.08
2024-02-02T10:47:40.624Z,99546.55
2024-02-02T10:50:08.280Z,99543.64
2024-02-02T10:52:35.916Z,99537.19
2024-02-02T10:55:03.620Z,99527.59
2024-02-02T10:57:31.355Z,99524.77
2024-02-02T10:59:58.920Z,99520.55
2024-02-02T11:02:26.545Z,99508.96
2024-02-02T11:04:54.185Z,99504.68
2024-02-02T11:07:22.052Z,99501.59
2024-02-02T11:09:49.678Z,99502.02
2024-02-02T11:12:17.234Z,99506.02
2024-02-02T11:14:44.911Z,99499.38
2024-02-02T11:17:12.573Z,99489.50
2024-02-02T11:19:40.440Z,99482.42
2024-02-02T11:22:08.069Z,99485.34
2024-02-02T11:24:35.767Z,99485.09
2024-02-02T11:27:03.364Z,99478.91
2024-02-02T11:29:30.869Z,99469.31
2024-02-02T11:31:58.528Z,99471.02
2024-02-02T11:34:26.215Z,99471.83
2024-02-02T11:36:53.975Z,99466.61
2024-02-02T11:39:21.638Z,99460.91
2024-02-02T11:41:49.246Z,99457.37
2024-02-02T11:44:16.777Z,99461.17
2024-02-02T11:46:44.320Z,99465.54
2024-02-02T11:49:11.933Z,99455.38
2024-02-02T11:51:39.711Z,99450.80
2024-02-02T11:54:07.623Z,99444.65
2024-02-02T11:56:35.281Z,99445.16
2024-02-02T11:59:02.839Z,99448.13
2024-02-02T12:01:30.403Z,99450.09
2024-02-02T12:03:57.899Z,99452.38
2024-02-02T12:06:25.627Z,99445.60
2024-02-02T12:08:53.386Z,99440.58
2024-02-02T12:11:29.180Z,99432.90
2024-02-02T12:14:01.149Z,99426.39
2024-02-02T12:16:28.696Z,99424.73
2024-02-02T12:18:56.362Z,99423.30
2024-02-02T12:21:23.950Z,99424.11
2024-02-02T12:23:51.585Z,99415.16
2024-02-02T12:26:19.184Z,99411.93
2024-02-02T12:28:46.735Z,99409.08
2024-02-02T12:31:14.512Z,99409.20
2024-02-02T12:33:42.157Z,99402.80
2024-02-02T12:36:12.699Z,99398.45
2024-02-02T12:38:40.794Z,99395.28
2024-02-02T12:41:08.349Z,99387.34
2024-02-02T12:43:35.918Z,99383.80
2024-02-02T12:46:03.474Z,99379.20
2024-02-02T12:48:31.243Z,99379.94
2024-02-02T12:50:58.985Z,99376.37
2024-02-02T12:53:26.660Z,99373.50
2024-02-02T12:55:54.280Z,99369.95
2024-02-02T12:58:23.548Z,99367.59
2024-02-02T13:00:51.107Z,99370.56
2024-02-02T13:03:19.010Z,99370.59
2024-02-02T13:05:47.111Z,99368.76
2024-02-02T13:08:14.964Z,99369.23
2024-02-02T13:10:42.528Z,99371.77
2024-02-02T13:13:10.026Z,99368.29
2024-02-02T13:15:37.611Z,99364.39
2024-02-02T13:18:05.201Z,99359.55
2024-02-02T13:20:32.743Z,99352.34
2024-02-02T13:23:00.341Z,99351.14
2024-02-02T13:25:27.865Z,99350.97
2024-02-02T13:27:55.434Z,99341.20
2024-02-02T13:30:23.160Z,99338.74
2024-02-02T13:32:50.751Z,99336.38
2024-02-02T13:35:18.390Z,99332.38
2024-02-02T13:37:46.137Z,99327.08
2024-02-02T13:40:13.760Z,99311.36
2024-02-02T13:42:41.504Z,99311.70
2024-02-02T13:45:09.431Z,99309.50
2024-02-02T13:47:45.191Z,99307.27
2024-02-02T13:50:12.904Z,99298.37
2024-02-02T13:52:40.791Z,99297.94
2024-02-02T13:55:08.491Z,99286.34
2024-02-02T13:57:36.187Z,99288.13
2024-02-02T14:00:03.830Z,99288.25
2024-02-02T14:02:31.407Z,99293.08
2024-02-02T14:04:59.044Z,99288.82
2024-02-02T14:07:26.688Z,99288.32
2024-02-02T14:09:54.359Z,99290.02
2024-02-02T14:12:22.109Z,99284.12
2024-02-02T14:14:50.166Z,99281.02
2024-02-02T14:17:18.110Z,99279.24
2024-02-02T14:19:45.755Z,99273.43
2024-02-02T14:22:13.306Z,99275.16
2024-02-02T14:24:40.899Z,99275.67
2024-02-02T14:27:08.655Z,99276.59
2024-02-02T14:29:36.253Z,99270.77
2024-02-02T14:32:03.794Z,99266.16
2024-02-02T14:34:31.485Z,99255.91
2024-02-02T14:36:59.138Z,99259.14
2024-02-02T14:39:26.997Z,99255.65
2024-02-02T14:41:54.944Z,99258.50
2024-02-02T14:44:22.490Z,99255.00
2024-02-02T14:46:50.012Z,99253.30
2024-02-02T14:49:17.938Z,99249.28
2024-02-02T14:51:45.616Z,99251.55
2024-02-02T14:54:13.160Z,99252.36
2024-02-02T14:56:40.738Z,99250.56
2024-02-02T14:59:08.275Z,99242.92
2024-02-02T15:01:35.882Z,99244.14
2024-02-02T15:04:03.583Z,99237.47
2024-02-02T15:06:31.403Z,99238.87
2024-02-02T15:08:59.007Z,99233.84
2024-02-02T15:11:26.622Z,99233.27
2024-02-02T15:13:54.231Z,99228.26
2024-02-02T15:16:21.734Z,99224.65
2024-02-02T15:18:49.386Z,99223.02
2024-02-02T15:21:16.987Z,99214.84
2024-02-02T15:23:44.512Z,99207.48
2024-02-02T15:26:12.031Z,99203.55
2024-02-02T15:28:39.568Z,99199.85
2024-02-02T15:31:07.270Z,99192.96
2024-02-02T15:33:34.999Z,99189.50
2024-02-02T15:39:15.307Z,99187.26
2024-02-02T15:41:49.037Z,99195.20
2024-02-02T15:44:16.621Z,99195.42
2024-02-02T15:46:44.605Z,99186.31
2024-02-02T15:49:12.188Z,99185.55
2024-02-02T15:51:39.995Z,99187.79
2024-02-02T15:54:07.966Z,99185.19
2024-02-02T15:56:35.499Z,99187.42
2024-02-02T15:59:03.042Z,99181.23
2024-02-02T16:01:30.630Z,99178.64
2024-02-02T16:03:58.219Z,99174.87
2024-02-02T16:06:25.794Z,99175.44
2024-02-02T16:08:53.413Z,99174.21
2024-02-02T16:11:20.895Z,99168.56
2024-02-02T16:13:55.246Z,99159.34
2024-02-02T16:16:22.903Z,99155.22
2024-02-02T16:18:50.580Z,99150.96
2024-02-02T16:21:18.346Z,99148.06
2024-02-02T16:23:45.915Z,99153.64
2024-02-02T16:26:13.445Z,99151.16
2024-02-02T16:28:40.990Z,99151.83
2024-02-02T16:31:08.567Z,99155.52
2024-02-02T16:33:36.249Z,99158.35
2024-02-02T16:36:03.873Z,99158.00
2024-02-02T16:38:31.899Z,99163.20
2024-02-02T16:40:59.421Z,99151.84
2024-02-02T16:43:26.976Z,99148.73
2024-02-02T16:45:54.623Z,99148.36
2024-02-02T16:48:22.429Z,99143.73
2024-02-02T16:50:50.024Z,99153.84
2024-02-02T16:53:17.515Z,99151.48
2024-02-02T16:55:45.426Z,99147.59
2024-02-02T16:58:13.006Z,99144.66
2024-02-02T17:00:40.563Z,99136.48
2024-02-02T17:03:09.231Z,99128.82
2024-02-02T17:05:37.846Z,99122.84
2024-02-02T17:08:05.414Z,99120.14
2024-02-02T17:10:33.506Z,99117.42
2024-02-02T17:13:01.165Z,99110.37
2024-02-02T17:15:28.768Z,99109.23
2024-02-02T17:17:56.370Z,99124.20
2024-02-02T17:20:24.076Z,99122.14
2024-02-02T17:22:51.688Z,99128.11
2024-02-02T17:25:19.204Z,99117.08
2024-02-02T17:27:46.958Z,99113.61
2024-02-02T17:30:14.818Z,99104.95
2024-02-02T17:32:42.538Z,99102.14
2024-02-02T17:35:10.387Z,99093.80
2024-02-02T17:37:39.510Z,99082.95
2024-02-02T17:40:07.734Z,99075.27
2024-02-02T17:42:35.303Z,99072.48
2024-02-02T17:45:02.859Z,99065.05
2024-02-02T17:47:30.553Z,99062.02
2024-02-02T17:49:59.621Z,99059.89
2024-02-02T17:52:28.322Z,99059.39
2024-02-02T17:54:56.024Z,99052.38
2024-02-02T17:57:23.924Z,99050.14
2024-02-02T17:59:51.395Z,99043.23
2024-02-02T18:02:18.941Z,99034.75
2024-02-02T18:04:46.619Z,99034.30
2024-02-02T18:07:14.299Z,99028.89
2024-02-02T18:09:41.898Z,99021.59
2024-02-02T18:12:09.404Z,99016.27
2024-02-02T18:14:36.927Z,99007.80
2024-02-02T18:17:04.502Z,99004.02
2024-02-02T18:19:32.147Z,98998.11
2024-02-02T18:21:59.693Z,98993.23
2024-02-02T18:24:27.280Z,98987.94
2024-02-02T18:26:55.020Z,98981.81
2024-02-02T18:29:22.616Z,98985.27
2024-02-02T18:31:50.122Z,98984.27
2024-02-02T18:34:17.726Z,98980.16
2024-02-02T18:36:45.411Z,98980.92
2024-02-02T18:39:13.194Z,98976.64
2024-02-02T18:41:40.751Z,98974.27
2024-02-02T18:44:08.451Z,98967.83
2024-02-02T18:46:35.967Z,98965.95
2024-02-02T18:49:03.590Z,98965.57
2024-02-02T18:51:31.240Z,98963.27
2024-02-02T18:53:58.823Z,98955.61
2024-02-02T18:56:26.372Z,98941.67
2024-02-02T18:58:53.958Z,98937.75
2024-02-02T19:01:21.543Z,98924.98
2024-02-02T19:03:49.180Z,98913.45
2024-02-02T19:06:17.024Z,98902.15
2024-02-02T19:08:44.775Z,98898.30
2024-02-02T19:11:12.384Z,98905.50
2024-02-02T19:13:39.973Z,98895.14
2024-02-02T19:16:07.573Z,98886.95
2024-02-02T19:18:35.294Z,98881.71
2024-02-02T19:21:02.876Z,98881.66
2024-02-02T19:23:30.421Z,98883.38
2024-02-02T19:25:57.978Z,98879.70
2024-02-02T19:28:25.504Z,98872.25
2024-02-02T19:30:53.113Z,98879.05
2024-02-02T19:33:20.779Z,98873.99
2024-02-02T19:35:48.435Z,98873.66
2024-02-02T19:38:16.065Z,98869.46
2024-02-02T19:40:43.594Z,98866.80
2024-02-02T19:43:11.143Z,98865.98
2024-02-02T19:45:38.783Z,98862.25
2024-02-02T19:48:06.474Z,98851.65
2024-02-02T19:50:34.347Z,98845.42
2024-02-02T19:53:02.002Z,98843.73
2024-02-02T19:55:29.661Z,98836.63
2024-02-02T19:57:57.371Z,98831.88
2024-02-02T20:00:24.937Z,98826.05
2024-02-02T20:02:52.513Z,98823.53
2024-02-02T20:05:23.706Z,98823.61
2024-02-02T20:07:52.788Z,98825.36
2024-02-02T20:10:20.351Z,98828.98
2024-02-02T20:12:47.866Z,98826.32
2024-02-02T20:15:15.605Z,98823.55
2024-02-02T20:17:43.144Z,98816.09
2024-02-02T20:20:10.686Z,98823.59
2024-02-02T20:22:38.263Z,98821.52
2024-02-02T20:25:05.929Z,98822.23
2024-02-02T20:27:33.517Z,98825.67
2024-02-02T20:30:01.039Z,98813.50
2024-02-02T20:32:28.615Z,98806.39
2024-02-02T20:34:56.282Z,98808.98
2024-02-02T20:37:23.893Z,98807.52
2024-02-02T20:39:51.940Z,98814.00
2024-02-02T20:42:19.554Z,98818.62
2024-02-02T20:44:47.130Z,98820.34
2024-02-02T20:47:14.678Z,98822.13
2024-02-02T20:49:42.216Z,98824.13
2024-02-02T20:52:09.789Z,98826.29
2024-02-02T20:54:37.353Z,98831.25
2024-02-02T20:57:05.004Z,98828.38
2024-02-02T20:59:32.634Z,98829.10
2024-02-02T21:02:00.212Z,98832.89
2024-02-02T21:04:27.930Z,98838.58
2024-02-02T21:06:55.653Z,98839.88
2024-02-02T21:09:23.272Z,98838.41
2024-02-02T21:11:53.238Z,98842.55
2024-02-02T21:14:20.784Z,98849.15
2024-02-02T21:16:48.408Z,98845.86
2024-02-02T21:19:16.040Z,98846.20
2024-02-02T21:21:43.643Z,98838.91
2024-02-02T21:24:11.216Z,98836.69
2024-02-02T21:26:38.788Z,98830.50
2024-02-02T21:29:06.465Z,98829.00
2024-02-02T21:31:33.962Z,98823.54
2024-02-02T21:34:01.517Z,98824.67
2024-02-02T21:36:29.118Z,98809.92
2024-02-02T21:38:57.061Z,98802.59
2024-02-02T21:41:24.576Z,98795.62
2024-02-02T21:43:52.066Z,98786.10
2024-02-02T21:46:19.581Z,98784.52
2024-02-02T21:48:47.128Z,98783.88
2024-02-02T21:51:14.827Z,98779.31
2024-02-02T21:53:42.359Z,98777.27
2024-02-02T21:56:09.866Z,98774.71
2024-02-02T21:58:37.461Z,98773.27
2024-02-02T22:01:05.213Z,98770.20
2024-02-02T22:03:32.856Z,98767.16
2024-02-02T22:06:00.402Z,98776.95
2024-02-02T22:08:27.959Z,98770.26
2024-02-02T22:10:55.844Z,98766.73
2024-02-02T22:13:23.366Z,98771.87
2024-02-02T22:15:50.944Z,98771.37
2024-02-02T22:18:18.617Z,98768.73
2024-02-02T22:20:46.431Z,98769.41
2024-02-02T22:23:14.675Z,98771.20
2024-02-02T22:25:42.320Z,98775.89
2024-02-02T22:28:09.819Z,98771.70
2024-02-02T22:30:37.419Z,98765.73
2024-02-02T22:33:05.124Z,98758.75
2024-02-02T22:35:32.676Z,98760.21
2024-02-02T22:38:00.234Z,98755.38
2024-02-02T22:40:27.741Z,98751.01
2024-02-02T22:42:55.708Z,98741.20
2024-02-02T22:45:23.210Z,98741.86
2024-02-02T22:47:50.867Z,98741.89
2024-02-02T22:50:18.582Z,98741.06
2024-02-02T22:52:46.403Z,98741.38
2024-02-02T22:55:14.168Z,98741.14
2024-02-02T22:57:41.690Z,98745.15
2024-02-02T23:00:09.321Z,98747.29
2024-02-02T23:02:36.973Z,98751.91
2024-02-02T23:05:04.442Z,98748.86
2024-02-02T23:07:32.017Z,98742.89
2024-02-02T23:09:59.596Z,98745.74
2024-02-02T23:12:27.201Z,98736.87
2024-02-02T23:14:54.890Z,98730.92
2024-02-02T23:17:22.542Z,98727.55
2024-02-02T23:19:50.218Z,98723.80
2024-02-02T23:22:18.209Z,98721.43
2024-02-02T23:24:45.824Z,98713.90
2024-02-02T23:27:13.416Z,98705.06
2024-02-02T23:29:41.000Z,98703.16
2024-02-02T23:32:08.567Z,98704.71
2024-02-02T23:34:36.200Z,98693.83
2024-02-02T23:37:03.824Z,98687.19
2024-02-02T23:39:31.368Z,98690.02
2024-02-02T23:41:58.908Z,98692.17
2024-02-02T23:44:26.431Z,98694.41
2024-02-02T23:46:54.019Z,98687.91
2024-02-02T23:49:21.689Z,98685.02
2024-02-02T23:51:49.691Z,98687.55
2024-02-02T23:54:17.277Z,98685.84
2024-02-02T23:56:44.884Z,98679.42
2024-02-02T23:59:12.524Z,98680.30
